createdAt,value
2023-10-13T00:00:34.665Z,3.80
2023-10-13T00:03:02.189Z,3.60
2023-10-13T00:05:32.194Z,3.30
2023-10-13T00:08:01.928Z,3.23
2023-10-13T00:10:29.721Z,3.73
2023-10-13T00:13:06.910Z,3.43
2023-10-13T00:15:39.709Z,3.40
2023-10-13T00:18:13.193Z,4.27
2023-10-13T00:20:41.430Z,4.20
2023-10-13T00:23:10.487Z,4.20
2023-10-13T00:25:44.485Z,3.80
2023-10-13T00:28:12.167Z,3.57
2023-10-13T00:30:40.257Z,3.60
2023-10-13T00:33:08.539Z,3.87
2023-10-13T00:35:43.316Z,3.50
2023-10-13T00:38:14.627Z,3.57
2023-10-13T00:40:52.735Z,3.63
2023-10-13T00:43:35.741Z,3.73
2023-10-13T00:46:09.121Z,3.60
2023-10-13T00:48:44.304Z,3.17
2023-10-13T00:51:19.965Z,3.90
2023-10-13T00:53:49.684Z,3.97
2023-10-13T00:56:23.434Z,4.40
2023-10-13T00:58:53.369Z,3.83
2023-10-13T01:01:22.920Z,4.33
2023-10-13T01:03:51.277Z,3.57
2023-10-13T01:06:18.652Z,3.90
2023-10-13T01:08:51.859Z,3.60
2023-10-13T01:11:20.564Z,3.90
2023-10-13T01:13:52.196Z,4.17
2023-10-13T01:16:18.934Z,4.00
2023-10-13T01:18:49.760Z,3.57
2023-10-13T01:21:19.263Z,4.20
2023-10-13T01:23:49.179Z,4.10
2023-10-13T01:26:22.451Z,4.00
2023-10-13T01:28:49.994Z,3.97
2023-10-13T01:31:25.840Z,3.60
2023-10-13T01:33:55.492Z,3.70
2023-10-13T01:36:22.815Z,3.73
2023-10-13T01:38:52.508Z,3.60
2023-10-13T01:41:19.440Z,3.83
2023-10-13T01:43:48.393Z,3.57
2023-10-13T01:46:16.187Z,3.87
2023-10-13T01:48:44.621Z,3.70
2023-10-13T01:51:11.331Z,3.80
2023-10-13T01:53:39.346Z,3.53
2023-10-13T01:56:11.346Z,3.70
2023-10-13T01:58:42.369Z,4.00
2023-10-13T02:01:10.290Z,3.20
2023-10-13T02:03:42.407Z,3.20
2023-10-13T02:06:11.569Z,3.47
2023-10-13T02:08:44.441Z,3.47
2023-10-13T02:11:12.407Z,3.00
2023-10-13T02:13:43.764Z,3.57
2023-10-13T02:16:12.958Z,3.20
2023-10-13T02:18:44.873Z,3.33
2023-10-13T02:21:14.130Z,3.13
2023-10-13T02:23:45.258Z,3.90
2023-10-13T02:26:16.437Z,3.40
2023-10-13T02:28:45.435Z,3.43
2023-10-13T02:31:12.615Z,3.70
2023-10-13T02:33:46.092Z,3.33
2023-10-13T02:36:13.690Z,3.20
2023-10-13T02:38:47.392Z,3.27
2023-10-13T02:41:25.065Z,3.17
2023-10-13T02:43:52.560Z,3.40
2023-10-13T02:46:19.193Z,3.53
2023-10-13T02:48:53.959Z,4.00
2023-10-13T02:51:26.458Z,3.90
2023-10-13T02:53:54.287Z,3.37
2023-10-13T02:56:22.281Z,3.70
2023-10-13T02:58:54.494Z,3.70
2023-10-13T03:01:22.193Z,3.83
2023-10-13T03:03:51.711Z,3.40
2023-10-13T03:06:20.755Z,3.43
2023-10-13T03:08:48.785Z,3.40
2023-10-13T03:11:15.663Z,3.60
2023-10-13T03:13:46.319Z,3.70
2023-10-13T03:16:17.472Z,3.87
2023-10-13T03:18:54.894Z,3.37
2023-10-13T03:21:33.405Z,3.47
2023-10-13T03:24:05.619Z,3.40
2023-10-13T03:26:38.215Z,3.20
2023-10-13T03:29:09.257Z,3.67
2023-10-13T03:31:40.341Z,2.83
2023-10-13T03:34:13.572Z,2.93
2023-10-13T03:36:59.537Z,3.17
2023-10-13T03:39:30.901Z,2.50
2023-10-13T03:42:00.548Z,2.70
2023-10-13T03:44:32.220Z,2.87
2023-10-13T03:47:09.809Z,3.00
2023-10-13T03:49:39.254Z,2.60
2023-10-13T03:52:07.139Z,2.90
2023-10-13T03:54:36.633Z,2.90
2023-10-13T03:57:12.539Z,2.70
2023-10-13T03:59:47.666Z,2.63
2023-10-13T04:02:19.213Z,3.00
2023-10-13T04:04:50.867Z,3.83
2023-10-13T04:07:32.932Z,2.63
2023-10-13T04:10:18.064Z,3.13
2023-10-13T04:13:07.073Z,2.90
2023-10-13T04:15:43.855Z,2.77
2023-10-13T04:18:35.116Z,3.47
2023-10-13T04:21:19.943Z,3.00
2023-10-13T04:24:05.113Z,3.37
2023-10-13T04:26:38.824Z,2.90
2023-10-13T04:29:11.646Z,3.00
2023-10-13T04:31:58.398Z,2.83
2023-10-13T04:34:35.389Z,2.50
2023-10-13T04:37:24.177Z,2.70
2023-10-13T04:39:58.345Z,2.90
2023-10-13T04:42:40.373Z,3.17
2023-10-13T04:45:28.642Z,3.27
2023-10-13T04:48:14.677Z,2.60
2023-10-13T04:50:46.283Z,2.70
2023-10-13T04:53:28.897Z,2.63
2023-10-13T04:56:29.478Z,2.20
2023-10-13T04:59:20.971Z,2.90
2023-10-13T05:02:17.621Z,2.47
2023-10-13T05:05:04.333Z,2.90
2023-10-13T05:07:49.273Z,2.60
2023-10-13T05:10:34.684Z,2.67
2023-10-13T05:13:19.590Z,3.30
2023-10-13T05:16:06.610Z,2.90
2023-10-13T05:18:52.618Z,2.60
2023-10-13T05:21:40.600Z,2.70
2023-10-13T05:24:26.232Z,2.37
2023-10-13T05:27:11.785Z,2.47
2023-10-13T05:30:09.667Z,2.70
2023-10-13T05:32:57.171Z,2.90
2023-10-13T05:35:57.891Z,2.73
2023-10-13T05:38:44.347Z,3.13
2023-10-13T05:41:29.515Z,2.57
2023-10-13T05:44:14.448Z,2.83
2023-10-13T05:47:02.310Z,3.10
2023-10-13T05:49:51.201Z,3.10
2023-10-13T05:52:42.357Z,2.90
2023-10-13T05:55:29.435Z,2.47
2023-10-13T05:58:14.526Z,2.20
2023-10-13T06:01:00.101Z,2.50
2023-10-13T06:03:59.954Z,2.43
2023-10-13T06:06:45.099Z,2.47
2023-10-13T06:09:30.243Z,2.50
2023-10-13T06:12:17.066Z,2.60
2023-10-13T06:15:04.587Z,2.40
2023-10-13T06:17:49.827Z,2.70
2023-10-13T06:20:34.945Z,2.30
2023-10-13T06:23:19.824Z,2.40
2023-10-13T06:26:09.900Z,4.47
2023-10-13T06:28:44.916Z,5.13
2023-10-13T06:31:22.713Z,3.13
2023-10-13T06:33:50.668Z,3.30
2023-10-13T06:36:18.934Z,2.33
2023-10-13T06:38:56.053Z,2.50
2023-10-13T06:41:31.651Z,2.20
2023-10-13T06:44:01.265Z,1.90
2023-10-13T06:46:29.819Z,1.60
2023-10-13T06:49:00.765Z,1.70
2023-10-13T06:51:32.493Z,1.60
2023-10-13T06:54:01.298Z,1.97
2023-10-13T06:56:30.299Z,1.50
2023-10-13T06:59:03.657Z,1.50
2023-10-13T07:01:39.467Z,1.80
2023-10-13T07:04:14.710Z,1.70
2023-10-13T07:06:45.570Z,1.50
2023-10-13T07:09:30.077Z,1.60
2023-10-13T07:12:02.205Z,1.57
2023-10-13T07:14:29.709Z,1.70
2023-10-13T07:17:00.381Z,1.27
2023-10-13T07:19:29.356Z,1.27
2023-10-13T07:21:59.861Z,1.60
2023-10-13T07:24:28.909Z,1.50
2023-10-13T07:27:04.297Z,1.03
2023-10-13T07:29:34.892Z,1.37
2023-10-13T07:32:04.598Z,1.50
2023-10-13T07:34:33.746Z,1.30
2023-10-13T07:37:01.901Z,1.30
2023-10-13T07:42:09.166Z,1.77
2023-10-13T07:44:41.441Z,1.63
2023-10-13T07:47:11.869Z,1.67
2023-10-13T07:49:41.158Z,1.50
2023-10-13T07:52:38.141Z,1.67
2023-10-13T07:55:21.158Z,1.37
2023-10-13T07:58:00.167Z,1.60
2023-10-13T08:00:30.849Z,1.57
2023-10-13T08:03:20.774Z,1.53
2023-10-13T08:05:58.853Z,1.40
2023-10-13T08:08:36.132Z,1.70
2023-10-13T08:11:11.845Z,1.40
2023-10-13T08:13:45.300Z,1.60
2023-10-13T08:16:30.493Z,1.50
2023-10-13T08:19:03.084Z,1.70
2023-10-13T08:21:33.139Z,1.50
2023-10-13T08:24:07.079Z,1.97
2023-10-13T08:26:56.367Z,1.70
2023-10-13T08:29:41.294Z,1.67
2023-10-13T08:32:23.952Z,2.33
2023-10-13T08:35:11.009Z,1.60
2023-10-13T08:37:48.831Z,1.83
2023-10-13T08:40:42.360Z,1.80
2023-10-13T08:43:12.513Z,1.80
2023-10-13T08:45:54.572Z,1.87
2023-10-13T08:48:27.373Z,1.73
2023-10-13T08:50:57.579Z,1.97
2023-10-13T08:53:29.495Z,1.90
2023-10-13T08:56:06.630Z,2.00
2023-10-13T08:58:53.206Z,1.77
2023-10-13T09:01:35.529Z,1.87
2023-10-13T09:04:17.444Z,1.80
2023-10-13T09:06:48.513Z,1.87
2023-10-13T09:09:27.874Z,1.90
2023-10-13T09:12:08.686Z,2.17
2023-10-13T09:14:37.347Z,1.60
2023-10-13T09:17:34.904Z,1.80
2023-10-13T09:20:24.691Z,2.33
2023-10-13T09:23:08.834Z,2.13
2023-10-13T09:25:36.934Z,2.23
2023-10-13T09:28:11.370Z,2.47
2023-10-13T09:30:43.519Z,1.93
2023-10-13T09:33:16.470Z,2.50
2023-10-13T09:35:44.491Z,2.03
2023-10-13T09:38:14.507Z,2.13
2023-10-13T09:40:47.625Z,2.03
2023-10-13T09:43:16.173Z,2.13
2023-10-13T09:45:44.279Z,2.33
2023-10-13T09:48:17.442Z,2.20
2023-10-13T09:50:46.923Z,1.67
2023-10-13T09:53:19.173Z,2.10
2023-10-13T09:55:48.278Z,2.20
2023-10-13T09:58:15.765Z,2.20
2023-10-13T10:00:57.726Z,2.50
2023-10-13T10:03:42.716Z,2.17
2023-10-13T10:06:20.203Z,2.90
2023-10-13T10:08:52.464Z,2.17
2023-10-13T10:11:32.382Z,2.23
2023-10-13T10:14:09.932Z,2.33
2023-10-13T10:16:42.959Z,2.53
2023-10-13T10:19:10.619Z,2.40
2023-10-13T10:21:38.389Z,2.33
2023-10-13T10:24:25.128Z,2.20
2023-10-13T10:26:53.833Z,2.77
2023-10-13T10:29:20.715Z,2.67
2023-10-13T10:31:48.943Z,2.73
2023-10-13T10:34:19.851Z,2.67
2023-10-13T10:36:49.069Z,2.40
2023-10-13T10:39:18.906Z,2.60
2023-10-13T10:41:53.904Z,2.50
2023-10-13T10:44:35.002Z,2.53
2023-10-13T10:47:11.493Z,2.60
2023-10-13T10:49:39.627Z,2.43
2023-10-13T10:52:08.983Z,2.50
2023-10-13T10:54:44.948Z,2.30
2023-10-13T10:57:18.793Z,2.90
2023-10-13T10:59:47.044Z,2.50
2023-10-13T11:02:19.524Z,2.53
2023-10-13T11:04:52.998Z,2.33
2023-10-13T11:07:24.784Z,2.10
2023-10-13T11:10:06.910Z,2.70
2023-10-13T11:12:35.190Z,2.60
2023-10-13T11:15:14.960Z,2.97
2023-10-13T11:17:49.997Z,2.23
2023-10-13T11:20:19.448Z,2.40
2023-10-13T11:22:51.186Z,2.60
2023-10-13T11:25:27.302Z,2.93
2023-10-13T11:27:59.620Z,2.97
2023-10-13T11:30:31.243Z,2.80
2023-10-13T11:33:01.039Z,2.40
2023-10-13T11:35:49.859Z,2.70
2023-10-13T11:38:26.452Z,2.60
2023-10-13T11:41:09.390Z,2.67
2023-10-13T11:43:54.038Z,2.47
2023-10-13T11:46:42.023Z,2.77
2023-10-13T11:49:18.898Z,3.10
2023-10-13T11:51:47.500Z,2.87
2023-10-13T11:54:16.200Z,3.40
2023-10-13T11:56:45.752Z,3.37
2023-10-13T11:59:18.270Z,3.00
2023-10-13T12:02:03.010Z,2.63
2023-10-13T12:07:20.947Z,2.50
2023-10-13T12:10:07.665Z,2.77
2023-10-13T12:12:44.145Z,3.07
2023-10-13T12:15:16.291Z,2.90
2023-10-13T12:17:46.962Z,2.93
2023-10-13T12:20:19.869Z,2.83
2023-10-13T12:22:56.413Z,3.10
2023-10-13T12:25:35.419Z,2.90
2023-10-13T12:28:19.783Z,3.23
2023-10-13T12:30:54.082Z,2.83
2023-10-13T12:33:28.380Z,2.77
2023-10-13T12:36:07.875Z,2.97
2023-10-13T12:38:52.429Z,3.17
2023-10-13T12:41:38.332Z,2.70
2023-10-13T12:44:25.800Z,3.13
2023-10-13T12:47:11.797Z,3.40
2023-10-13T12:49:59.105Z,2.90
2023-10-13T12:52:33.226Z,3.40
2023-10-13T12:55:07.179Z,2.90
2023-10-13T12:57:35.463Z,2.67
2023-10-13T13:00:18.289Z,3.03
2023-10-13T13:02:46.596Z,3.30
2023-10-13T13:05:14.220Z,2.73
2023-10-13T13:07:53.519Z,3.07
2023-10-13T13:10:21.927Z,3.03
2023-10-13T13:12:49.384Z,3.33
2023-10-13T13:15:24.663Z,3.17
2023-10-13T13:17:52.234Z,3.20
2023-10-13T13:20:29.007Z,2.97
2023-10-13T13:22:56.957Z,2.90
2023-10-13T13:25:31.348Z,3.37
2023-10-13T13:28:05.710Z,3.20
2023-10-13T13:30:36.246Z,3.07
2023-10-13T13:33:12.044Z,3.40
2023-10-13T13:35:40.313Z,2.70
2023-10-13T13:38:17.643Z,3.20
2023-10-13T13:40:50.209Z,3.60
2023-10-13T13:43:32.724Z,3.37
2023-10-13T13:46:03.438Z,3.37
2023-10-13T13:48:33.702Z,3.13
2023-10-13T13:51:06.945Z,3.30
2023-10-13T13:53:36.111Z,3.13
2023-10-13T13:56:04.916Z,3.03
2023-10-13T13:58:32.497Z,3.13
2023-10-13T14:01:12.961Z,3.00
2023-10-13T14:03:46.279Z,3.27
2023-10-13T14:06:19.077Z,2.77
2023-10-13T14:08:49.267Z,3.03
2023-10-13T14:11:43.925Z,3.27
2023-10-13T14:14:13.098Z,2.87
2023-10-13T14:16:45.744Z,3.53
2023-10-13T14:19:13.753Z,2.93
2023-10-13T14:21:41.230Z,3.43
2023-10-13T14:24:17.977Z,3.00
2023-10-13T14:26:45.880Z,3.30
2023-10-13T14:29:15.285Z,3.40
2023-10-13T14:31:45.027Z,2.73
2023-10-13T14:34:12.587Z,2.93
2023-10-13T14:36:40.088Z,3.27
2023-10-13T14:39:10.261Z,2.77
2023-10-13T14:41:38.728Z,3.67
2023-10-13T14:44:08.123Z,2.80
2023-10-13T14:46:37.324Z,2.90
2023-10-13T14:49:06.627Z,2.80
2023-10-13T14:51:34.232Z,3.00
2023-10-13T14:54:01.884Z,3.00
2023-10-13T14:56:29.879Z,2.60
2023-10-13T14:58:57.579Z,2.67
2023-10-13T15:01:28.012Z,3.10
2023-10-13T15:03:57.907Z,2.90
2023-10-13T15:06:30.080Z,2.97
2023-10-13T15:08:58.323Z,2.97
2023-10-13T15:11:28.115Z,3.10
2023-10-13T15:13:56.987Z,3.40
2023-10-13T15:16:28.002Z,2.77
2023-10-13T15:18:56.470Z,3.37
2023-10-13T15:21:27.496Z,3.20
2023-10-13T15:24:00.508Z,3.67
2023-10-13T15:26:28.334Z,3.50
2023-10-13T15:28:57.038Z,3.30
2023-10-13T15:31:26.978Z,2.80
2023-10-13T15:33:57.443Z,3.40
2023-10-13T15:36:25.422Z,2.67
2023-10-13T15:38:53.956Z,3.20
2023-10-13T15:41:27.728Z,2.90
2023-10-13T15:43:55.804Z,3.13
2023-10-13T15:47:42.572Z,2.63
2023-10-13T15:49:15.305Z,3.43
2023-10-13T15:51:43.203Z,3.00
2023-10-13T15:54:17.954Z,3.50
2023-10-13T15:56:48.989Z,2.87
2023-10-13T15:59:17.657Z,3.30
2023-10-13T16:01:47.859Z,2.97
2023-10-13T16:04:16.922Z,2.80
2023-10-13T16:06:47.574Z,3.37
2023-10-13T16:09:16.051Z,2.87
2023-10-13T16:11:44.364Z,2.80
2023-10-13T16:14:16.709Z,3.20
2023-10-13T16:16:47.750Z,3.00
2023-10-13T16:19:18.174Z,3.10
2023-10-13T16:21:46.589Z,3.20
2023-10-13T16:24:18.382Z,3.00
2023-10-13T16:26:46.754Z,3.00
2023-10-13T16:29:15.525Z,3.57
2023-10-13T16:31:46.454Z,3.33
2023-10-13T16:34:20.232Z,3.80
2023-10-13T16:36:49.189Z,3.23
2023-10-13T16:39:17.714Z,3.37
2023-10-13T16:41:46.908Z,3.30
2023-10-13T16:44:16.928Z,2.97
2023-10-13T16:46:44.703Z,3.13
2023-10-13T16:49:12.622Z,3.43
2023-10-13T16:51:41.645Z,3.43
2023-10-13T16:54:11.749Z,3.27
2023-10-13T16:56:39.712Z,7.60
2023-10-13T16:59:08.207Z,4.00
2023-10-13T17:01:38.049Z,4.00
2023-10-13T17:04:06.576Z,3.80
2023-10-13T17:06:34.860Z,3.70
2023-10-13T17:09:04.949Z,3.80
2023-10-13T17:11:32.526Z,3.70
2023-10-13T17:14:00.952Z,3.57
2023-10-13T17:16:28.468Z,14.20
2023-10-13T17:18:59.780Z,9.00
2023-10-13T17:21:29.429Z,8.53
2023-10-13T17:23:57.547Z,13.23
2023-10-13T17:26:27.778Z,7.87
2023-10-13T17:28:56.320Z,5.13
2023-10-13T17:31:23.966Z,4.47
2023-10-13T17:33:51.466Z,5.50
2023-10-13T17:36:20.302Z,5.40
2023-10-13T17:38:48.495Z,4.30
2023-10-13T17:41:19.676Z,4.50
2023-10-13T17:43:47.581Z,3.40
2023-10-13T17:46:15.928Z,3.33
2023-10-13T17:48:45.034Z,3.13
2023-10-13T17:51:14.128Z,3.10
2023-10-13T17:53:43.324Z,3.87
2023-10-13T17:56:13.235Z,4.77
2023-10-13T17:58:43.789Z,3.87
2023-10-13T18:01:18.141Z,3.30
2023-10-13T18:03:49.201Z,3.50
2023-10-13T18:06:25.924Z,3.40
2023-10-13T18:08:56.030Z,3.40
2023-10-13T18:11:25.322Z,3.50
2023-10-13T18:13:53.529Z,3.10
2023-10-13T18:16:22.157Z,2.67
2023-10-13T18:18:51.460Z,3.60
2023-10-13T18:21:20.012Z,5.37
2023-10-13T18:23:49.431Z,6.20
2023-10-13T18:26:20.807Z,3.50
2023-10-13T18:28:51.352Z,3.37
2023-10-13T18:31:19.087Z,3.50
2023-10-13T18:33:46.975Z,2.80
2023-10-13T18:36:15.884Z,3.10
2023-10-13T18:38:44.032Z,3.00
2023-10-13T18:41:14.584Z,2.80
2023-10-13T18:43:43.732Z,2.90
2023-10-13T18:46:11.909Z,2.83
2023-10-13T18:48:41.069Z,3.43
2023-10-13T18:51:09.333Z,2.70
2023-10-13T18:53:40.961Z,2.73
2023-10-13T18:56:10.468Z,3.30
2023-10-13T18:58:40.433Z,3.30
2023-10-13T19:01:16.998Z,2.93
2023-10-13T19:03:45.751Z,5.57
2023-10-13T19:06:16.307Z,3.00
2023-10-13T19:08:43.862Z,3.13
2023-10-13T19:11:12.543Z,2.60
2023-10-13T19:13:40.500Z,3.00
2023-10-13T19:16:08.663Z,2.80
2023-10-13T19:18:38.890Z,2.30
2023-10-13T19:21:07.410Z,3.13
2023-10-13T19:23:38.722Z,2.63
2023-10-13T19:26:13.484Z,2.50
2023-10-13T19:28:42.732Z,2.90
2023-10-13T19:31:10.742Z,2.43
2023-10-13T19:33:40.071Z,2.70
2023-10-13T19:36:07.931Z,2.53
2023-10-13T19:38:35.414Z,2.53
2023-10-13T19:41:03.952Z,2.70
2023-10-13T19:43:32.828Z,2.60
2023-10-13T19:46:06.623Z,2.87
2023-10-13T19:48:35.510Z,2.40
2023-10-13T19:51:05.209Z,2.30
2023-10-13T19:53:32.916Z,2.70
2023-10-13T19:56:00.410Z,2.30
2023-10-13T19:58:28.149Z,2.67
2023-10-13T20:00:56.304Z,2.80
2023-10-13T20:03:25.186Z,2.40
2023-10-13T20:05:53.055Z,2.70
2023-10-13T20:08:22.467Z,2.23
2023-10-13T20:10:49.909Z,2.80
2023-10-13T20:13:17.493Z,2.57
2023-10-13T20:15:45.958Z,3.03
2023-10-13T20:18:14.350Z,2.40
2023-10-13T20:20:45.130Z,2.40
2023-10-13T20:23:14.097Z,2.67
2023-10-13T20:25:44.700Z,2.50
2023-10-13T20:28:12.339Z,2.10
2023-10-13T20:30:40.458Z,2.43
2023-10-13T20:33:11.324Z,2.90
2023-10-13T20:35:42.128Z,2.93
2023-10-13T20:38:10.191Z,2.70
2023-10-13T20:40:39.566Z,2.87
2023-10-13T20:43:12.885Z,2.30
2023-10-13T20:45:40.413Z,3.87
2023-10-13T20:48:10.668Z,4.00
2023-10-13T20:50:38.338Z,3.57
2023-10-13T20:53:06.674Z,3.00
2023-10-13T20:55:38.616Z,2.83
2023-10-13T20:58:06.263Z,2.47
2023-10-13T21:00:36.476Z,2.50
2023-10-13T21:03:07.903Z,2.70
2023-10-13T21:05:35.575Z,2.20
2023-10-13T21:08:03.305Z,2.80
2023-10-13T21:10:33.468Z,2.57
2023-10-13T21:13:03.699Z,2.47
2023-10-13T21:15:36.717Z,2.20
2023-10-13T21:18:07.291Z,2.23
2023-10-13T21:20:35.799Z,2.57
2023-10-13T21:23:03.608Z,2.33
2023-10-13T21:25:36.797Z,2.50
2023-10-13T21:28:04.867Z,2.37
2023-10-13T21:30:34.608Z,2.20
2023-10-13T21:33:02.381Z,2.50
2023-10-13T21:35:34.618Z,2.50
2023-10-13T21:38:02.925Z,2.50
2023-10-13T21:40:31.472Z,1.97
2023-10-13T21:42:59.651Z,2.00
2023-10-13T21:45:28.160Z,2.37
2023-10-13T21:47:56.808Z,2.03
2023-10-13T21:50:26.191Z,2.37
2023-10-13T21:52:56.643Z,2.30
2023-10-13T21:55:27.705Z,2.13
2023-10-13T21:57:56.385Z,2.10
2023-10-13T22:00:55.026Z,2.10
2023-10-13T22:03:23.674Z,2.30
2023-10-13T22:05:51.407Z,1.90
2023-10-13T22:08:20.277Z,2.27
2023-10-13T22:10:49.763Z,2.33
2023-10-13T22:13:17.829Z,1.77
2023-10-13T22:15:45.285Z,2.47
2023-10-13T22:18:15.876Z,2.07
2023-10-13T22:20:45.608Z,1.73
2023-10-13T22:23:13.232Z,2.17
2023-10-13T22:25:42.149Z,2.60
2023-10-13T22:28:09.674Z,1.97
2023-10-13T22:30:37.197Z,2.47
2023-10-13T22:33:05.024Z,2.00
2023-10-13T22:35:32.872Z,2.13
2023-10-13T22:38:00.523Z,2.00
2023-10-13T22:40:31.879Z,1.90
2023-10-13T22:43:01.647Z,2.33
2023-10-13T22:45:32.270Z,2.00
2023-10-13T22:48:00.143Z,1.97
2023-10-13T22:50:27.754Z,2.27
2023-10-13T22:52:56.886Z,1.70
2023-10-13T22:55:24.528Z,2.33
2023-10-13T22:57:53.110Z,2.37
2023-10-13T23:00:34.742Z,2.07
2023-10-13T23:03:03.148Z,2.03
2023-10-13T23:05:31.698Z,1.80
2023-10-13T23:08:09.596Z,1.87
2023-10-13T23:10:45.973Z,2.17
2023-10-13T23:13:15.728Z,2.00
2023-10-13T23:15:44.639Z,2.00
2023-10-13T23:18:13.498Z,2.23
2023-10-13T23:20:41.500Z,2.37
2023-10-13T23:23:09.464Z,2.27
2023-10-13T23:25:39.342Z,2.00
2023-10-13T23:28:08.980Z,2.00
2023-10-13T23:30:40.953Z,1.93
2023-10-13T23:33:12.442Z,2.13
2023-10-13T23:35:42.420Z,2.07
2023-10-13T23:38:25.875Z,2.00
2023-10-13T23:40:56.516Z,1.90
2023-10-13T23:43:24.485Z,1.80
2023-10-13T23:45:55.134Z,2.27
2023-10-13T23:48:26.293Z,2.40
2023-10-13T23:50:59.277Z,2.23
2023-10-13T23:53:30.324Z,2.30
2023-10-13T23:56:02.114Z,2.27
2023-10-13T23:58:30.821Z,2.10
